ヤクーツク の空港の天気 - METARとTAF

ヤクーツク空港 ( UEEE / YKS ) - ロシア ヤクーツク
飛行場実況気象(Metar)
観測時間01/19 06:00 YAKT (01/18 21:00 UTC)
風向・風速北 1m/s
視程800m
天気現象
なし
気温-44℃
湿度64%
気圧1023hPa
METARUEEE 182100Z 36001MPS 0800 0600NE R23L/P2000D FG NSC M44/M48 Q1023 R23L/490150 NOSIG RMK QFE758
過去の天気等 Google飛行場航空写真 Wunderground天気予報

過去48時間のMETAR

飛行場予報(TAF)
発表時間: 1/19 05:00 YAKT (1/18 20:00 UTC)
予報対象時間: 19日6時 YAKT ~ 20日12時 YAKT
風向・風速北北西 3m/s
視程300m
天気現象
全天を覆う雲 鉛直視程 90m
TAF UEEE 182000Z 1821/2003 34003MPS 0300 FG VV003 TXM41/1905Z TNM45/1900Z